Time;durP1;ratioP1;P1;durP2;ratioP2;P2;SDS_P1;SDS_P2;PMS_P1;PMS_P2;Temp;Humidity;BMP_temperature;BMP_pressure;BME280_temperature;BME280_humidity;BME280_pressure;Samples;Min_cycle;Max_cycle;Signal;HPM_P1;HPM_P2
2022/04/20 00:01:16;;;;;;;7.85;4.75;;;;;;;10.58;51.97;101493.38;5001575;28;20034;-77
2022/04/20 00:03:41;;;;;;;7.90;4.80;;;;;;;10.58;51.72;101493.38;5003174;28;20257;-77
2022/04/20 00:06:07;;;;;;;6.60;4.57;;;;;;;10.53;51.67;101486.22;5000880;28;20025;-77
2022/04/20 00:08:33;;;;;;;6.50;4.35;;;;;;;10.49;51.45;101482.66;5003214;28;20278;-77
2022/04/20 00:10:59;;;;;;;7.53;4.28;;;;;;;10.47;51.89;101481.72;5001143;28;20173;-77
2022/04/20 00:13:25;;;;;;;8.25;4.75;;;;;;;10.44;51.51;101484.19;5003060;28;20022;-77
2022/04/20 00:15:50;;;;;;;7.07;4.38;;;;;;;10.38;52.20;101482.25;5001991;28;20026;-77
2022/04/20 00:18:15;;;;;;;5.68;4.25;;;;;;;10.37;51.79;101480.50;5002848;28;20141;-78
2022/04/20 00:20:41;;;;;;;6.32;4.45;;;;;;;10.32;51.80;101483.75;5002984;28;20228;-78
2022/04/20 00:23:06;;;;;;;7.53;4.70;;;;;;;10.28;52.47;101490.56;5003539;28;20305;-78
2022/04/20 00:25:31;;;;;;;8.10;4.90;;;;;;;10.29;52.13;101489.75;5002878;28;20042;-78
2022/04/20 00:27:56;;;;;;;6.65;4.70;;;;;;;10.22;52.54;101488.63;5000558;28;20026;-78
2022/04/20 00:30:22;;;;;;;7.47;4.88;;;;;;;10.19;52.47;101487.66;5003066;28;20030;-78
2022/04/20 00:32:47;;;;;;;6.95;4.82;;;;;;;10.16;53.10;101491.03;5001516;28;20219;-78
2022/04/20 00:35:12;;;;;;;6.38;4.50;;;;;;;10.11;53.35;101492.59;5003031;28;20026;-78
2022/04/20 00:37:39;;;;;;;7.93;4.80;;;;;;;10.08;53.02;101495.97;5001850;28;20185;-78
2022/04/20 00:40:05;;;;;;;7.25;4.78;;;;;;;10.04;53.51;101496.69;5000361;28;20022;-78
2022/04/20 00:42:31;;;;;;;7.13;4.38;;;;;;;10.02;53.73;101505.25;5001981;28;20026;-78
2022/04/20 00:44:57;;;;;;;9.13;5.15;;;;;;;9.98;53.69;101500.75;5002695;28;20034;-78
2022/04/20 00:47:23;;;;;;;8.15;5.25;;;;;;;9.94;53.71;101517.13;5001542;28;20030;-78
2022/04/20 00:49:49;;;;;;;8.88;5.10;;;;;;;9.88;53.64;101508.25;5002758;28;20031;-78
2022/04/20 00:52:14;;;;;;;7.78;5.10;;;;;;;9.79;53.42;101510.53;5004575;28;20034;-78
2022/04/20 00:54:39;;;;;;;7.45;4.97;;;;;;;9.76;53.62;101505.16;5004143;28;20229;-78
2022/04/20 00:57:05;;;;;;;9.60;5.10;;;;;;;9.72;53.87;101506.78;5005076;28;20273;-78
2022/04/20 00:59:34;;;;;;;8.02;4.93;;;;;;;9.69;54.06;101513.56;5006447;28;20018;-78
2022/04/20 01:02:00;;;;;;;7.82;5.18;;;;;;;9.66;53.95;101516.06;5006099;28;20023;-78
2022/04/20 01:04:25;;;;;;;7.60;5.10;;;;;;;9.60;54.21;101515.84;5003558;28;20289;-78
2022/04/20 01:06:50;;;;;;;8.07;5.00;;;;;;;9.54;54.28;101512.19;5004843;28;20025;-78
2022/04/20 01:09:16;;;;;;;9.40;5.20;;;;;;;9.52;54.51;101513.81;5005993;28;20034;-78
2022/04/20 01:11:42;;;;;;;7.60;5.35;;;;;;;9.45;54.52;101510.94;5006017;28;20203;-78
2022/04/20 01:14:09;;;;;;;6.93;5.13;;;;;;;9.44;54.33;101514.34;5006126;28;20085;-78
2022/04/20 01:16:34;;;;;;;9.05;5.53;;;;;;;9.41;54.64;101515.13;5004838;28;20052;-78
2022/04/20 01:19:01;;;;;;;7.57;5.20;;;;;;;9.36;54.71;101511.47;5004764;28;20292;-78
2022/04/20 01:21:26;;;;;;;9.02;5.43;;;;;;;9.34;55.23;101513.09;5005940;28;20347;-78
2022/04/20 01:23:52;;;;;;;8.90;5.40;;;;;;;9.29;54.63;101514.66;5005714;28;20026;-78
2022/04/20 01:26:17;;;;;;;7.90;5.35;;;;;;;9.27;54.66;101509.41;5004900;28;20038;-78
2022/04/20 01:28:45;;;;;;;7.55;5.28;;;;;;;9.20;54.89;101513.44;5003227;28;20049;-78
2022/04/20 01:31:15;;;;;;;8.55;5.60;;;;;;;9.12;55.08;101514.84;5005839;28;20022;-78
2022/04/20 01:33:41;;;;;;;7.28;5.28;;;;;;;9.08;55.33;101519.88;5006046;28;20025;-78
2022/04/20 01:36:07;;;;;;;7.80;5.03;;;;;;;9.06;55.17;101512.00;5003590;28;20069;-78
2022/04/20 01:38:32;;;;;;;8.63;5.35;;;;;;;9.05;55.54;101513.72;5005325;28;20026;-78
2022/04/20 01:40:57;;;;;;;8.20;5.32;;;;;;;9.02;55.59;101520.50;5004320;28;20284;-78
2022/04/20 01:43:23;;;;;;;9.35;5.35;;;;;;;8.94;55.61;101517.59;5005376;28;20073;-78
2022/04/20 01:45:48;;;;;;;8.35;5.35;;;;;;;8.93;55.50;101514.94;5004720;28;20102;-78
2022/04/20 01:48:13;;;;;;;7.00;4.95;;;;;;;8.87;55.37;101510.38;5005331;28;20061;-78
2022/04/20 01:51:46;;;;;;;7.40;5.38;;;;;;;8.87;55.65;101512.97;5005375;28;20029;-78
2022/04/20 01:53:24;;;;;;;9.23;5.60;;;;;;;8.84;55.95;101511.13;5004925;28;20284;-78
2022/04/20 01:55:49;;;;;;;7.70;5.25;;;;;;;8.79;55.66;101512.66;5003090;28;20076;-78
2022/04/20 01:58:15;;;;;;;8.65;5.43;;;;;;;8.75;55.74;101510.75;5004670;28;20285;-78
2022/04/20 02:00:40;;;;;;;9.07;5.32;;;;;;;8.70;55.75;101513.16;5005094;28;20053;-78
2022/04/20 02:03:05;;;;;;;8.25;5.60;;;;;;;8.65;56.00;101512.06;5004805;28;20034;-78
2022/04/20 02:05:30;;;;;;;8.50;5.40;;;;;;;8.62;56.05;101513.66;5002939;28;20271;-78
2022/04/20 02:07:57;;;;;;;8.30;5.13;;;;;;;8.59;55.94;101518.72;5004041;28;20029;-78
2022/04/20 02:10:22;;;;;;;8.07;5.45;;;;;;;8.56;56.24;101510.78;5005205;28;20034;-78
2022/04/20 02:12:48;;;;;;;9.07;5.95;;;;;;;8.56;56.24;101511.69;5005025;28;20034;-78
2022/04/20 02:15:13;;;;;;;7.90;5.35;;;;;;;8.50;56.17;101514.00;5005296;28;20030;-78
2022/04/20 02:17:39;;;;;;;10.75;5.75;;;;;;;8.49;56.34;101514.84;5003243;28;20027;-78
2022/04/20 02:20:05;;;;;;;9.00;6.13;;;;;;;8.44;56.22;101505.94;5004843;28;20317;-78
2022/04/20 02:22:30;;;;;;;9.90;5.72;;;;;;;8.39;56.49;101510.94;5004788;28;20244;-78
2022/04/20 02:24:55;;;;;;;8.93;5.78;;;;;;;8.34;57.26;101512.44;5004676;28;20180;-78
2022/04/20 02:27:21;;;;;;;8.52;5.57;;;;;;;8.29;56.85;101517.44;5003029;28;20030;-78
2022/04/20 02:29:47;;;;;;;10.13;6.10;;;;;;;8.26;56.88;101512.09;5004411;28;20034;-78
2022/04/20 02:32:12;;;;;;;10.50;6.75;;;;;;;8.22;56.69;101507.59;5003437;28;20097;-78
2022/04/20 02:34:38;;;;;;;9.93;5.90;;;;;;;8.19;56.66;101508.34;5004470;28;20061;-78
2022/04/20 02:37:04;;;;;;;11.13;6.10;;;;;;;8.15;56.58;101510.75;5004605;28;20022;-78
2022/04/20 02:39:30;;;;;;;10.63;6.18;;;;;;;8.13;57.10;101508.06;5002411;28;20296;-78
2022/04/20 02:41:55;;;;;;;10.75;6.40;;;;;;;8.12;56.50;101511.47;5004438;28;20018;-78
2022/04/20 02:44:21;;;;;;;9.43;6.28;;;;;;;8.12;56.81;101514.09;5004244;28;20045;-78
2022/04/20 02:46:47;;;;;;;9.75;6.28;;;;;;;8.06;57.00;101516.41;5003112;28;20037;-78
2022/04/20 02:49:13;;;;;;;13.32;6.28;;;;;;;8.00;56.66;101521.34;5004169;28;20265;-78
2022/04/20 02:51:38;;;;;;;9.40;6.18;;;;;;;7.99;56.96;101519.56;5003791;28;20026;-78
2022/04/20 02:54:03;;;;;;;9.73;6.25;;;;;;;7.97;57.02;101527.28;5004062;28;20303;-78
2022/04/20 02:56:29;;;;;;;10.90;6.30;;;;;;;7.98;57.34;101522.97;5003028;28;20019;-78
2022/04/20 02:58:54;;;;;;;8.90;6.18;;;;;;;7.92;57.41;101517.50;5002871;28;20060;-78
2022/04/20 03:01:19;;;;;;;10.50;6.47;;;;;;;7.92;57.24;101530.47;5004031;28;20077;-78
2022/04/20 03:03:45;;;;;;;9.18;6.05;;;;;;;7.81;57.40;101528.28;5003621;28;20034;-78
2022/04/20 03:06:11;;;;;;;9.63;6.20;;;;;;;7.78;57.75;101529.88;5002078;28;20030;-78
2022/04/20 03:08:36;;;;;;;9.38;5.85;;;;;;;7.76;57.63;101529.78;5003834;28;20038;-78
2022/04/20 03:11:01;;;;;;;9.18;6.15;;;;;;;7.75;57.86;101528.00;5003766;28;20046;-78
2022/04/20 03:13:27;;;;;;;10.13;6.07;;;;;;;7.74;57.75;101528.81;5003520;28;20030;-78
2022/04/20 03:15:52;;;;;;;10.35;6.50;;;;;;;7.73;57.62;101527.03;5001096;28;20022;-78
2022/04/20 03:18:17;;;;;;;10.57;6.45;;;;;;;7.70;58.09;101526.91;5002088;28;20093;-78
2022/04/20 03:20:42;;;;;;;10.80;6.57;;;;;;;7.65;58.12;101533.59;5003404;28;20033;-77
2022/04/20 03:23:08;;;;;;;10.32;6.13;;;;;;;7.61;57.74;101532.53;5002434;28;20158;-78
2022/04/20 03:25:33;;;;;;;10.10;6.32;;;;;;;7.56;58.28;101536.66;5003477;28;20026;-78
2022/04/20 03:27:58;;;;;;;11.00;6.38;;;;;;;7.53;58.27;101535.59;5003728;28;20034;-78
2022/04/20 03:30:24;;;;;;;12.40;6.22;;;;;;;7.48;58.24;101536.25;5001739;28;20288;-78
2022/04/20 03:32:49;;;;;;;11.27;6.30;;;;;;;7.43;58.63;101536.84;5002306;28;20052;-78
2022/04/20 03:35:16;;;;;;;9.38;6.25;;;;;;;7.41;58.32;101539.38;5003771;28;20026;-78
2022/04/20 03:37:41;;;;;;;11.68;6.35;;;;;;;7.42;58.85;101530.78;5002248;28;20028;-78
2022/04/20 03:40:11;;;;;;;8.40;5.75;;;;;;;7.40;59.00;101542.81;5001110;28;20022;-78
2022/04/20 03:42:36;;;;;;;11.82;6.28;;;;;;;7.38;58.90;101543.53;5003186;28;20281;-78
2022/04/20 03:45:01;;;;;;;11.80;5.93;;;;;;;7.39;58.82;101545.34;5003210;28;20062;-78
2022/04/20 03:47:27;;;;;;;11.18;6.43;;;;;;;7.34;58.75;101546.81;5002822;28;20089;-78
2022/04/20 03:49:52;;;;;;;11.45;6.15;;;;;;;7.32;59.03;101549.31;5001740;28;20308;-78
2022/04/20 03:52:17;;;;;;;10.63;6.55;;;;;;;7.29;58.95;101549.19;5003182;28;20292;-78
2022/04/20 03:54:43;;;;;;;11.48;6.43;;;;;;;7.29;58.92;101547.47;5003068;28;20025;-78
2022/04/20 03:57:10;;;;;;;10.95;6.20;;;;;;;7.29;58.52;101546.59;5002118;28;20045;-78
2022/04/20 03:59:36;;;;;;;10.35;6.60;;;;;;;7.27;59.20;101554.28;5001926;28;20258;-78
2022/04/20 04:02:03;;;;;;;10.95;6.53;;;;;;;7.26;59.14;101546.44;5003150;28;20026;-78
2022/04/20 04:04:28;;;;;;;9.98;6.03;;;;;;;7.24;59.11;101555.81;5001766;28;21072;-78
2022/04/20 04:06:54;;;;;;;10.07;6.07;;;;;;;7.21;59.22;101555.69;5002408;28;20196;-78
2022/04/20 04:09:19;;;;;;;12.15;6.50;;;;;;;7.13;59.74;101553.59;5003027;28;20177;-78
2022/04/20 04:11:45;;;;;;;10.38;5.85;;;;;;;7.13;59.22;101563.97;5002896;28;20034;-78
2022/04/20 04:14:10;;;;;;;10.45;5.85;;;;;;;7.11;59.51;101555.25;5003003;28;20031;-78
2022/04/20 04:16:39;;;;;;;10.13;6.22;;;;;;;7.09;59.90;101562.03;5000280;28;20045;-78
2022/04/20 04:19:06;;;;;;;10.38;6.40;;;;;;;7.06;60.03;101556.72;4998565;28;20073;-78
2022/04/20 04:21:32;;;;;;;12.02;6.30;;;;;;;7.07;59.34;101563.69;5001558;28;20291;-78
2022/04/20 04:23:58;;;;;;;12.02;6.60;;;;;;;7.04;59.76;101558.34;5001977;28;20022;-78
2022/04/20 04:26:24;;;;;;;11.45;6.63;;;;;;;7.05;59.92;101559.22;5003682;28;20057;-78
2022/04/20 04:28:49;;;;;;;12.10;6.70;;;;;;;7.02;60.06;101565.13;5007021;28;20042;-78
2022/04/20 04:31:14;;;;;;;11.40;6.65;;;;;;;7.01;60.20;101567.66;5005816;28;20030;-78
2022/04/20 04:33:40;;;;;;;14.20;7.03;;;;;;;7.00;59.49;101568.50;5005631;28;20041;-78
2022/04/20 04:36:05;;;;;;;12.25;6.85;;;;;;;6.97;60.04;101571.81;5005563;28;20225;-78
2022/04/20 04:38:30;;;;;;;10.38;6.63;;;;;;;6.92;60.18;101573.25;5006905;28;20018;-78
2022/04/20 04:40:56;;;;;;;11.13;6.75;;;;;;;6.93;60.33;101582.81;5005471;28;20034;-78
2022/04/20 04:43:22;;;;;;;12.48;6.53;;;;;;;6.89;59.98;101574.00;5006615;28;20030;-78
2022/04/20 04:48:37;;;;;;;12.02;6.72;;;;;;;6.88;60.37;101584.28;5004674;28;20048;-78
2022/04/20 04:51:07;;;;;;;12.43;6.75;;;;;;;6.85;60.21;101587.63;5006327;28;20026;-78
2022/04/20 04:53:32;;;;;;;13.25;7.13;;;;;;;6.85;60.67;101597.09;5006481;28;20093;-78
2022/04/20 04:55:58;;;;;;;12.77;6.95;;;;;;;6.84;60.78;101587.56;5006483;28;20212;-78
2022/04/20 04:58:23;;;;;;;10.95;6.85;;;;;;;6.83;60.99;101598.72;5005829;28;20053;-78
2022/04/20 05:00:49;;;;;;;14.32;7.00;;;;;;;6.79;60.95;101592.47;5005837;28;20038;-78
2022/04/20 05:03:16;;;;;;;14.15;7.50;;;;;;;6.75;60.70;101601.81;5005584;28;20048;-78
2022/04/20 05:05:41;;;;;;;13.15;7.10;;;;;;;6.75;61.32;101595.75;5005506;28;20033;-78
2022/04/20 05:08:07;;;;;;;12.10;6.75;;;;;;;6.74;61.10;101599.13;5004286;28;20034;-78
2022/04/20 05:10:33;;;;;;;13.90;7.38;;;;;;;6.76;61.34;101600.09;5004105;28;20053;-79
2022/04/20 05:13:00;;;;;;;15.57;7.50;;;;;;;6.77;61.22;101597.59;5005686;28;20049;-79
2022/04/20 05:15:26;;;;;;;13.80;7.55;;;;;;;6.76;61.32;101597.50;5004777;28;20018;-79
2022/04/20 05:17:51;;;;;;;13.07;7.90;;;;;;;6.80;61.36;101604.63;5005308;28;20165;-78
2022/04/20 05:20:19;;;;;;;11.93;6.70;;;;;;;6.76;61.03;101598.41;5005875;28;20041;-78
2022/04/20 05:22:44;;;;;;;12.85;7.72;;;;;;;6.76;61.61;101603.59;5004862;28;20045;-78
2022/04/20 05:25:10;;;;;;;13.27;7.18;;;;;;;6.77;61.74;101600.16;5003756;28;20089;-78
2022/04/20 05:27:35;;;;;;;14.18;7.85;;;;;;;6.75;61.57;101607.00;5005353;28;20037;-79
2022/04/20 05:30:00;;;;;;;15.02;7.72;;;;;;;6.75;61.87;101601.81;5003343;28;20110;-79
2022/04/20 05:32:26;;;;;;;17.58;7.72;;;;;;;6.78;61.62;101596.78;5003261;28;20034;-79
2022/04/20 05:34:51;;;;;;;13.15;7.82;;;;;;;6.82;61.95;101603.00;5005220;28;20099;-79
2022/04/20 05:42:46;;;;;;;13.63;7.63;;;;;;;6.91;62.34;101610.38;5003485;28;20032;-78
2022/04/20 05:45:11;;;;;;;15.05;7.68;;;;;;;6.96;62.25;101611.47;5004300;28;20093;-78
2022/04/20 05:47:38;;;;;;;14.18;8.07;;;;;;;6.96;62.33;101611.47;5004233;28;20030;-79
2022/04/20 05:50:04;;;;;;;14.77;7.93;;;;;;;6.98;62.61;101615.06;5004682;28;20033;-78
2022/04/20 05:52:29;;;;;;;16.80;8.90;;;;;;;7.05;61.97;101617.09;5005158;28;20096;-78
2022/04/20 05:54:57;;;;;;;16.92;9.00;;;;;;;7.12;62.05;101613.13;5004410;28;20265;-78
2022/04/20 05:57:22;;;;;;;17.77;8.65;;;;;;;7.17;62.47;101613.34;5005346;28;20034;-78
2022/04/20 05:59:47;;;;;;;17.60;9.50;;;;;;;7.24;62.71;101607.66;5004985;28;20030;-78
2022/04/20 06:02:13;;;;;;;16.88;9.38;;;;;;;7.30;62.32;101613.19;5004247;28;20053;-78
2022/04/20 06:04:38;;;;;;;17.90;9.25;;;;;;;7.37;62.52;101615.25;5002273;28;20070;-78
2022/04/20 06:07:04;;;;;;;15.95;9.43;;;;;;;7.43;62.47;101612.03;5004733;28;20257;-78
2022/04/20 06:09:29;;;;;;;17.60;9.40;;;;;;;7.49;62.44;101615.84;5005022;28;20018;-79
2022/04/20 06:11:54;;;;;;;22.08;10.48;;;;;;;7.55;62.24;101607.47;5005047;28;20030;-78
2022/04/20 06:14:20;;;;;;;20.88;10.13;;;;;;;7.63;62.21;101613.94;5004778;28;20279;-78
2022/04/20 06:16:46;;;;;;;18.95;10.65;;;;;;;7.69;62.52;101615.94;5003303;28;20116;-78
2022/04/20 06:19:11;;;;;;;19.95;10.38;;;;;;;7.76;62.31;101615.41;5002845;28;20266;-78
2022/04/20 06:21:36;;;;;;;18.83;10.35;;;;;;;7.83;61.85;101614.88;5004650;28;20058;-78
2022/04/20 06:24:01;;;;;;;16.88;9.80;;;;;;;7.90;62.13;101618.63;5004651;28;20030;-78
2022/04/20 06:26:27;;;;;;;15.93;9.65;;;;;;;8.01;61.34;101621.75;5004743;28;20026;-77
2022/04/20 06:28:52;;;;;;;18.88;9.90;;;;;;;8.11;60.03;101620.44;5004717;28;20030;-77
2022/04/20 06:31:17;;;;;;;16.95;9.30;;;;;;;8.27;60.06;101620.34;5001258;28;20035;-77
2022/04/20 06:33:43;;;;;;;15.88;9.32;;;;;;;10.66;54.26;101610.94;5004464;28;20084;-77
2022/04/20 06:36:08;;;;;;;19.05;9.52;;;;;;;14.19;46.42;101612.22;5004703;28;20037;-77
2022/04/20 06:38:33;;;;;;;22.05;9.15;;;;;;;17.17;39.21;101606.16;5004269;28;20088;-77
2022/04/20 06:40:58;;;;;;;16.02;9.35;;;;;;;19.76;34.45;101611.44;5004617;28;20232;-77
2022/04/20 06:43:24;;;;;;;17.17;8.55;;;;;;;21.75;29.49;101613.81;5002199;28;20037;-77
2022/04/20 06:45:49;;;;;;;15.20;8.65;;;;;;;23.28;27.70;101610.00;5003390;28;20022;-77
2022/04/20 06:48:14;;;;;;;14.98;8.60;;;;;;;24.35;26.14;101614.19;5004082;28;20057;-77
2022/04/20 06:50:40;;;;;;;14.85;8.13;;;;;;;23.07;26.82;101616.50;5002613;28;20168;-77
2022/04/20 06:58:35;;;;;;;13.77;7.72;;;;;;;17.48;34.54;101618.69;5003668;28;20096;-78
2022/04/20 07:01:04;;;;;;;12.57;7.50;;;;;;;16.27;36.55;101616.59;5004199;28;20089;-78
2022/04/20 07:03:30;;;;;;;15.37;7.93;;;;;;;15.43;39.13;101615.38;5003952;28;20101;-78
2022/04/20 07:05:55;;;;;;;12.85;7.88;;;;;;;14.70;40.10;101615.88;5003381;28;20046;-78
2022/04/20 07:08:22;;;;;;;14.65;7.78;;;;;;;14.11;41.32;101625.97;5003150;28;20026;-78
2022/04/20 07:10:47;;;;;;;12.60;7.57;;;;;;;13.62;42.74;101626.66;5002171;28;20029;-78
2022/04/20 07:13:13;;;;;;;12.05;7.80;;;;;;;13.29;43.43;101627.56;5003731;28;20026;-78
2022/04/20 07:15:38;;;;;;;13.02;8.15;;;;;;;13.01;43.89;101626.00;5003917;28;20030;-78
2022/04/20 07:18:05;;;;;;;12.38;7.90;;;;;;;12.82;44.85;101622.88;5002605;28;20026;-78
2022/04/20 07:20:31;;;;;;;13.52;7.90;;;;;;;12.67;45.22;101622.47;5003012;28;20273;-79
2022/04/20 07:22:56;;;;;;;14.52;8.05;;;;;;;12.55;46.92;101623.00;5003667;28;20034;-78
2022/04/20 07:25:22;;;;;;;14.38;7.93;;;;;;;12.47;47.23;101620.19;5002438;28;20044;-78
2022/04/20 07:27:48;;;;;;;11.10;7.78;;;;;;;12.42;47.82;101616.53;5002787;28;20045;-79
2022/04/20 07:30:15;;;;;;;14.48;8.52;;;;;;;12.34;46.76;101616.34;5004022;28;20022;-78
2022/04/20 07:32:40;;;;;;;13.60;8.10;;;;;;;12.33;48.66;101616.28;4997907;28;20044;-78
2022/04/20 07:35:06;;;;;;;14.23;8.77;;;;;;;12.33;48.76;101619.78;5001807;28;20414;-78
2022/04/20 07:37:31;;;;;;;14.07;8.00;;;;;;;12.34;47.41;101626.78;4999454;28;20281;-79
2022/04/20 07:39:56;;;;;;;11.57;7.53;;;;;;;12.34;47.53;101623.31;4999439;28;20042;-78
2022/04/20 07:42:22;;;;;;;13.35;7.28;;;;;;;12.33;48.48;101622.41;5000490;28;20049;-78
2022/04/20 07:44:47;;;;;;;15.23;7.80;;;;;;;12.38;48.70;101627.75;5003169;28;20022;-78
2022/04/20 07:47:12;;;;;;;14.15;8.18;;;;;;;12.43;48.99;101623.56;5002576;28;20084;-78
2022/04/20 07:52:22;;;;;;;12.70;7.47;;;;;;;12.54;47.21;101629.06;5003147;28;20033;-78
2022/04/20 07:54:47;;;;;;;12.48;7.68;;;;;;;12.59;48.28;101630.09;5002376;28;20046;-78
2022/04/20 07:57:15;;;;;;;14.00;7.95;;;;;;;12.63;47.53;101629.34;5001730;28;20033;-78
2022/04/20 07:59:41;;;;;;;14.02;7.82;;;;;;;12.65;46.06;101635.50;4999459;28;20045;-79
2022/04/20 08:02:07;;;;;;;11.45;7.88;;;;;;;12.66;46.26;101632.03;5002476;28;20281;-78
2022/04/20 08:04:32;;;;;;;13.23;7.43;;;;;;;12.75;48.07;101635.75;5002285;28;20041;-78
2022/04/20 08:06:58;;;;;;;10.57;7.20;;;;;;;12.80;45.57;101636.75;5001830;28;20295;-78
2022/04/20 08:09:24;;;;;;;11.40;7.00;;;;;;;12.84;46.63;101639.50;4997290;28;20022;-84
2022/04/20 08:11:49;;;;;;;14.52;6.85;;;;;;;12.91;46.14;101635.31;5001784;28;20022;-83
2022/04/20 08:14:14;;;;;;;16.55;7.78;;;;;;;12.99;45.52;101638.13;5002474;28;20196;-84
2022/04/20 08:16:41;;;;;;;13.73;7.75;;;;;;;13.05;46.75;101633.97;4999460;28;20276;-80
2022/04/20 08:19:07;;;;;;;15.25;8.63;;;;;;;13.13;46.69;101633.28;4998559;28;20033;-81
2022/04/20 08:21:33;;;;;;;13.77;7.63;;;;;;;13.20;46.15;101637.81;5001878;28;20065;-80
2022/04/20 08:23:58;;;;;;;13.93;7.45;;;;;;;13.25;45.38;101630.94;5000359;28;20292;-80
2022/04/20 08:26:24;;;;;;;12.05;7.65;;;;;;;13.29;43.58;101630.19;5000733;28;20093;-79
2022/04/20 08:28:49;;;;;;;15.32;7.78;;;;;;;13.33;44.17;101632.03;4998251;28;20085;-81
2022/04/20 08:31:15;;;;;;;13.52;7.65;;;;;;;13.40;46.03;101638.34;4994688;28;20092;-82
2022/04/20 08:33:41;;;;;;;13.60;8.07;;;;;;;13.48;44.51;101647.25;5000464;28;20037;-82
2022/04/20 08:36:06;;;;;;;15.07;7.53;;;;;;;13.53;44.28;101642.16;5001630;28;20033;-81
2022/04/20 08:38:32;;;;;;;16.60;8.00;;;;;;;13.55;44.29;101646.56;4999257;28;20184;-80
2022/04/20 08:40:59;;;;;;;12.60;7.95;;;;;;;13.58;43.39;101645.75;4996766;28;20030;-79
2022/04/20 08:43:27;;;;;;;12.55;7.70;;;;;;;13.59;42.85;101642.31;4992185;28;20057;-79
2022/04/20 08:45:54;;;;;;;13.43;7.68;;;;;;;13.63;43.42;101635.38;4999646;28;20033;-79
2022/04/20 08:48:19;;;;;;;16.48;8.45;;;;;;;13.70;43.73;101642.53;5000912;28;20018;-79
2022/04/20 08:50:46;;;;;;;11.45;7.18;;;;;;;13.76;42.26;101637.47;5001697;28;20038;-85
2022/04/20 08:53:11;;;;;;;14.68;7.90;;;;;;;13.88;44.73;101635.13;4997761;28;20172;-81
2022/04/20 08:55:37;;;;;;;15.52;8.15;;;;;;;13.96;44.68;101632.69;4997637;28;20348;-81
2022/04/20 08:58:04;;;;;;;16.58;8.68;;;;;;;14.01;42.33;101635.41;5000343;28;20015;-79
2022/04/20 09:00:30;;;;;;;19.75;8.18;;;;;;;14.07;44.65;101633.78;5001846;28;20114;-78
2022/04/20 09:03:01;;;;;;;16.02;8.43;;;;;;;14.15;43.98;101630.44;5000433;28;20087;-81
2022/04/20 09:05:34;;;;;;;14.70;8.23;;;;;;;14.24;43.58;101628.03;4998543;28;20054;-82
2022/04/20 09:08:11;;;;;;;13.35;8.45;;;;;;;14.34;44.44;101626.47;4999697;28;20033;-79
2022/04/20 09:10:37;;;;;;;14.93;8.00;;;;;;;14.44;43.15;101633.69;4999968;28;20071;-79
2022/04/20 09:13:10;;;;;;;15.40;7.47;;;;;;;14.52;43.07;101620.72;4997087;28;20034;-80
2022/04/20 09:15:37;;;;;;;16.77;7.72;;;;;;;14.58;40.85;101626.09;5003529;28;20030;-81
2022/04/20 09:18:04;;;;;;;15.65;7.78;;;;;;;14.61;40.94;101615.66;5004598;28;20069;-83
2022/04/20 09:20:35;;;;;;;13.18;7.55;;;;;;;14.70;42.77;101617.59;5005066;28;20289;-83
2022/04/20 09:23:08;;;;;;;14.88;8.68;;;;;;;14.76;43.88;101615.13;5001868;28;20030;-83
2022/04/20 09:25:36;;;;;;;16.77;7.88;;;;;;;14.84;42.55;101618.75;5003393;28;20305;-84
2022/04/20 09:28:02;;;;;;;12.13;7.30;;;;;;;14.93;43.88;101628.53;5000114;28;20041;-80
2022/04/20 09:30:38;;;;;;;14.00;8.02;;;;;;;15.00;43.91;101622.53;4999553;28;20309;-78
2022/04/20 09:33:09;;;;;;;15.13;8.18;;;;;;;15.09;45.22;101609.59;4997013;28;20053;-80
2022/04/20 09:35:45;;;;;;;12.80;8.00;;;;;;;15.16;42.85;101609.69;5002461;28;20049;-80
2022/04/20 09:38:11;;;;;;;13.50;7.75;;;;;;;15.24;42.18;101608.09;5005460;28;20025;-80
2022/04/20 09:40:38;;;;;;;13.30;7.47;;;;;;;15.31;41.88;101604.69;5003256;28;20224;-77
2022/04/20 09:43:12;;;;;;;15.85;7.45;;;;;;;15.39;41.69;101602.19;5005283;28;20061;-77
2022/04/20 09:45:38;;;;;;;15.75;8.32;;;;;;;15.46;40.92;101591.78;5003897;28;20030;-77
2022/04/20 09:51:11;;;;;;;14.30;7.70;;;;;;;15.61;42.38;101593.78;4996611;28;20041;-76
2022/04/20 09:53:37;;;;;;;13.35;7.47;;;;;;;15.67;41.17;101598.25;5004116;28;20220;-76
2022/04/20 09:56:27;;;;;;;12.70;6.90;;;;;;;15.75;40.95;101600.97;5005391;28;20165;-76
2022/04/20 09:58:59;;;;;;;;;;;;;;;15.81;41.84;101601.09;4993428;28;20048;-76
2022/04/20 10:01:35;;;;;;;10.40;6.35;;;;;;;15.91;39.93;101603.00;5002699;28;19917;-76
2022/04/20 10:04:06;;;;;;;9.63;6.18;;;;;;;15.96;38.73;101597.78;5003484;28;20023;-76
2022/04/20 10:06:32;;;;;;;13.75;6.35;;;;;;;15.97;38.32;101595.22;5003897;28;20090;-76
2022/04/20 10:08:58;;;;;;;14.02;7.90;;;;;;;16.05;39.21;101586.50;5005157;28;20042;-76
2022/04/20 10:11:23;;;;;;;12.52;6.15;;;;;;;16.12;39.77;101588.34;5005073;28;20101;-76
2022/04/20 10:16:54;;;;;;;11.70;5.80;;;;;;;16.20;38.24;101584.09;5004994;28;20040;-76
2022/04/20 10:19:26;;;;;;;11.65;6.43;;;;;;;16.14;38.79;101582.25;5002378;28;20034;-76
2022/04/20 10:21:53;;;;;;;13.32;7.55;;;;;;;16.15;39.85;101581.41;4991481;28;20046;-76
2022/04/20 10:24:24;;;;;;;9.20;5.82;;;;;;;16.19;37.35;101568.28;5001624;28;20046;-76
2022/04/20 10:26:51;;;;;;;9.85;5.95;;;;;;;16.17;36.52;101566.50;4991439;28;20018;-76
2022/04/20 10:29:27;;;;;;;8.50;5.25;;;;;;;16.19;38.39;101568.28;5004815;28;20049;-76
2022/04/20 10:32:12;;;;;;;15.23;6.97;;;;;;;16.18;39.15;101567.41;5004808;28;20081;-76
2022/04/20 10:34:38;;;;;;;10.70;5.80;;;;;;;16.22;39.09;101563.97;5004780;28;20285;-76
2022/04/20 10:37:07;;;;;;;13.30;6.57;;;;;;;16.26;37.37;101568.38;5004266;28;20108;-76
2022/04/20 10:39:38;;;;;;;9.52;6.00;;;;;;;16.31;40.01;101565.81;5004529;28;20036;-76
2022/04/20 10:42:14;;;;;;;11.57;5.65;;;;;;;16.27;36.97;101559.63;5004629;28;20284;-76
2022/04/20 10:44:56;;;;;;;11.82;6.35;;;;;;;16.30;37.72;101559.66;5004054;28;20221;-76
2022/04/20 10:47:26;;;;;;;12.48;6.60;;;;;;;16.37;39.81;101559.75;4995704;28;20019;-76
2022/04/20 10:49:52;;;;;;;11.25;6.50;;;;;;;16.43;39.89;101559.81;5002726;28;20035;-84
2022/04/20 10:52:36;;;;;;;10.25;6.88;;;;;;;16.52;40.28;101555.53;5001044;28;20102;-87
2022/04/20 10:55:04;;;;;;;12.02;6.85;;;;;;;16.62;39.51;101550.34;4999829;28;20072;-87
2022/04/20 10:57:34;;;;;;;10.73;6.57;;;;;;;16.68;38.87;101550.41;4999577;28;20352;-86
2022/04/20 11:00:18;;;;;;;11.27;6.93;;;;;;;16.73;39.03;101545.19;4998374;28;20261;-86
2022/04/20 11:02:50;;;;;;;10.82;6.88;;;;;;;16.71;36.02;101545.16;5000251;28;20022;-86
2022/04/20 11:05:20;;;;;;;10.63;6.57;;;;;;;16.73;39.42;101540.81;5002801;28;20027;-88
2022/04/20 11:08:12;;;;;;;11.20;6.80;;;;;;;16.82;38.93;101543.53;5002751;28;20018;-88
2022/04/20 11:10:41;;;;;;;12.45;6.85;;;;;;;16.90;38.04;101543.66;5002183;28;20117;-87
2022/04/20 11:19:06;;;;;;;8.98;6.28;;;;;;;17.13;38.53;101533.31;5000569;28;20102;-88
2022/04/20 11:21:32;;;;;;;17.60;7.40;;;;;;;17.18;37.87;101541.22;5003737;28;20114;-88
2022/04/20 11:23:59;;;;;;;16.95;7.05;;;;;;;17.18;36.98;101535.97;5003593;28;20026;-88
2022/04/20 11:26:38;;;;;;;16.40;6.93;;;;;;;17.12;35.57;101526.25;5001426;28;20253;-88
2022/04/20 11:29:17;;;;;;;15.35;7.68;;;;;;;17.15;38.46;101528.91;4997599;28;20038;-88
2022/04/20 11:31:46;;;;;;;11.57;7.65;;;;;;;17.25;39.28;101521.97;4999073;28;20030;-87
2022/04/20 11:34:14;;;;;;;12.50;7.63;;;;;;;17.28;38.64;101526.34;4997021;28;20025;-87
2022/04/20 11:36:43;;;;;;;10.05;7.70;;;;;;;17.27;35.11;101512.31;4998634;28;20026;-88
2022/04/20 11:39:11;;;;;;;13.63;7.68;;;;;;;17.23;36.31;101513.16;4997301;28;20026;-88
2022/04/20 11:41:48;;;;;;;13.43;7.60;;;;;;;17.28;36.99;101515.81;4999792;28;20033;-89
2022/04/20 11:44:20;;;;;;;14.60;7.72;;;;;;;17.28;36.81;101519.34;4998631;28;20189;-88
2022/04/20 11:46:45;;;;;;;10.68;7.10;;;;;;;17.32;39.81;101509.69;5001212;28;20072;-88
2022/04/20 11:49:11;;;;;;;10.82;7.15;;;;;;;17.37;36.26;101506.22;5003559;28;20026;-88
2022/04/20 11:51:37;;;;;;;15.63;7.28;;;;;;;17.47;38.38;101498.41;5002175;28;20265;-88